Time;durP1;ratioP1;P1;durP2;ratioP2;P2;SDS_P1;SDS_P2;PMS_P1;PMS_P2;Temp;Humidity;BMP_temperature;BMP_pressure;BME280_temperature;BME280_humidity;BME280_pressure;Samples;Min_cycle;Max_cycle;Signal;HPM_P1;HPM_P2
2023/12/08 00:01:56;;;;;;;10.97;6.50;;;3.20;99.90;;;;;;5082640;28;20220;-71
2023/12/08 00:04:21;;;;;;;11.50;7.17;;;3.20;99.90;;;;;;5083159;28;20158;-72
2023/12/08 00:06:47;;;;;;;11.80;7.17;;;3.30;99.90;;;;;;5082597;28;20763;-71
2023/12/08 00:09:13;;;;;;;10.00;6.20;;;3.30;99.90;;;;;;5082480;28;20201;-72
2023/12/08 00:11:39;;;;;;;10.93;6.60;;;3.20;99.90;;;;;;5081173;28;20213;-73
2023/12/08 00:14:05;;;;;;;12.97;7.83;;;3.30;99.90;;;;;;5076215;28;20424;-72
2023/12/08 00:16:30;;;;;;;13.60;6.67;;;3.30;99.90;;;;;;5081034;28;20178;-72
2023/12/08 00:18:56;;;;;;;12.33;7.33;;;3.30;99.90;;;;;;5080017;28;20178;-71
2023/12/08 00:21:21;;;;;;;11.20;7.20;;;3.30;99.90;;;;;;5081484;28;20206;-72
2023/12/08 00:23:47;;;;;;;13.27;7.67;;;3.30;99.90;;;;;;5081871;28;20583;-72
2023/12/08 00:26:12;;;;;;;9.07;6.80;;;3.40;99.90;;;;;;5082144;28;20167;-72
2023/12/08 00:28:38;;;;;;;7.97;6.40;;;3.40;99.90;;;;;;5081525;28;20180;-70
2023/12/08 00:31:04;;;;;;;12.30;7.23;;;3.40;99.90;;;;;;5082241;28;20281;-72
2023/12/08 00:33:29;;;;;;;8.03;6.53;;;3.50;99.90;;;;;;5081127;28;20174;-72
2023/12/08 00:35:55;;;;;;;12.93;7.77;;;3.50;99.90;;;;;;5081125;28;20201;-72
2023/12/08 00:38:20;;;;;;;13.67;8.30;;;3.50;99.90;;;;;;5081229;28;20170;-72
2023/12/08 00:40:46;;;;;;;15.20;7.97;;;3.50;99.90;;;;;;5081569;28;20190;-71
2023/12/08 00:43:12;;;;;;;14.97;7.70;;;3.50;99.90;;;;;;5079051;28;20194;-72
2023/12/08 00:45:37;;;;;;;12.93;7.30;;;3.60;99.90;;;;;;5080300;28;20174;-72
2023/12/08 00:48:03;;;;;;;10.80;7.23;;;3.60;99.90;;;;;;5081514;28;20188;-71
2023/12/08 00:50:29;;;;;;;10.03;7.10;;;3.60;99.90;;;;;;5081127;28;20249;-72
2023/12/08 00:52:54;;;;;;;11.23;7.23;;;3.60;99.90;;;;;;5081146;28;20447;-72
2023/12/08 00:55:20;;;;;;;10.30;6.10;;;3.60;99.90;;;;;;5081577;28;20190;-72
2023/12/08 00:57:45;;;;;;;11.30;6.70;;;3.60;99.90;;;;;;5081897;28;20181;-72
2023/12/08 01:00:11;;;;;;;12.00;7.30;;;3.50;99.90;;;;;;5082688;28;20687;-71
2023/12/08 01:02:37;;;;;;;11.43;7.33;;;3.50;99.90;;;;;;5081396;28;20201;-71
2023/12/08 01:05:02;;;;;;;9.70;6.50;;;3.50;99.90;;;;;;5081589;28;20423;-72
2023/12/08 01:07:28;;;;;;;9.27;6.80;;;3.50;99.90;;;;;;5078255;28;20231;-72
2023/12/08 01:09:54;;;;;;;15.37;7.90;;;3.50;99.90;;;;;;5076042;28;20648;-71
2023/12/08 01:12:19;;;;;;;15.43;8.27;;;3.60;99.90;;;;;;5079816;28;20265;-72
2023/12/08 01:14:45;;;;;;;10.30;7.47;;;3.50;99.90;;;;;;5076867;28;20696;-72
2023/12/08 01:17:10;;;;;;;11.63;6.57;;;3.60;99.90;;;;;;5082795;28;20202;-72
2023/12/08 01:19:36;;;;;;;9.33;5.93;;;3.60;99.90;;;;;;5082495;28;20178;-72
2023/12/08 01:22:01;;;;;;;9.87;6.40;;;3.60;99.90;;;;;;5082406;28;20257;-71
2023/12/08 01:24:27;;;;;;;10.10;5.53;;;3.60;99.90;;;;;;5082730;28;20170;-72
2023/12/08 01:26:53;;;;;;;13.50;7.07;;;3.60;99.90;;;;;;5080945;28;20365;-72
2023/12/08 01:29:18;;;;;;;9.80;6.63;;;3.60;99.90;;;;;;5083030;28;20438;-73
2023/12/08 01:31:44;;;;;;;12.53;7.50;;;3.60;99.90;;;;;;5080178;28;20194;-72
2023/12/08 01:34:09;;;;;;;12.53;8.40;;;3.60;99.90;;;;;;5081431;28;20220;-71
2023/12/08 01:36:35;;;;;;;11.40;7.20;;;3.60;99.90;;;;;;5080148;28;20257;-72
2023/12/08 01:39:00;;;;;;;11.20;7.67;;;3.40;99.90;;;;;;5079714;28;20229;-71
2023/12/08 01:41:26;;;;;;;16.10;8.23;;;3.30;99.90;;;;;;5078333;28;20194;-71
2023/12/08 01:43:51;;;;;;;14.50;8.10;;;3.20;99.90;;;;;;5075534;28;20181;-71
2023/12/08 01:46:19;;;;;;;14.80;8.43;;;3.10;99.90;;;;;;5076027;28;20215;-71
2023/12/08 01:48:45;;;;;;;14.63;7.83;;;3.00;99.90;;;;;;5074765;28;20244;-71
2023/12/08 01:51:13;;;;;;;12.83;8.17;;;3.00;99.90;;;;;;5073754;28;20939;-71
2023/12/08 01:53:40;;;;;;;11.23;8.37;;;2.90;99.90;;;;;;5073475;28;20432;-70
2023/12/08 01:56:08;;;;;;;10.33;8.23;;;2.80;99.90;;;;;;5073256;28;20895;-70
2023/12/08 01:58:37;;;;;;;11.90;7.90;;;2.80;99.90;;;;;;5073441;28;20499;-71
2023/12/08 02:01:06;;;;;;;18.53;8.63;;;2.70;99.90;;;;;;5073542;28;20927;-70
2023/12/08 02:03:35;;;;;;;12.83;7.83;;;2.70;99.90;;;;;;5073419;28;20915;-70
2023/12/08 02:06:00;;;;;;;13.43;8.00;;;2.60;99.90;;;;;;5072601;28;20443;-71
2023/12/08 02:08:27;;;;;;;11.83;8.60;;;2.60;99.90;;;;;;5073687;28;20919;-70
2023/12/08 02:10:53;;;;;;;12.73;8.93;;;2.60;99.90;;;;;;5074001;28;20190;-71
2023/12/08 02:13:20;;;;;;;14.43;8.13;;;2.60;99.90;;;;;;5068511;28;20472;-71
2023/12/08 02:15:49;;;;;;;13.60;9.17;;;2.60;99.90;;;;;;5072186;28;20448;-71
2023/12/08 02:18:17;;;;;;;17.73;9.70;;;2.60;99.90;;;;;;5075379;28;20412;-71
2023/12/08 02:20:43;;;;;;;15.87;8.47;;;2.70;99.90;;;;;;5074735;28;20478;-70
2023/12/08 02:23:08;;;;;;;14.47;9.30;;;2.70;99.90;;;;;;5072891;28;20452;-70
2023/12/08 02:25:34;;;;;;;17.80;9.20;;;2.70;99.90;;;;;;5074567;28;20397;-71
2023/12/08 02:28:03;;;;;;;15.87;9.57;;;2.70;99.90;;;;;;5073733;28;20212;-70
2023/12/08 02:30:29;;;;;;;13.83;8.23;;;2.70;99.90;;;;;;5073108;28;20432;-70
2023/12/08 02:33:11;;;;;;;17.20;9.33;;;2.70;99.90;;;;;;5073752;28;20773;-70
2023/12/08 02:35:40;;;;;;;15.40;8.67;;;2.80;99.90;;;;;;5073304;28;20171;-71
2023/12/08 02:38:08;;;;;;;18.77;10.40;;;2.80;99.90;;;;;;5073839;28;20412;-72
2023/12/08 02:40:35;;;;;;;15.37;9.23;;;2.70;99.90;;;;;;5074566;28;20417;-72
2023/12/08 02:43:01;;;;;;;18.77;9.37;;;2.80;99.90;;;;;;5073894;28;20463;-71
2023/12/08 02:45:27;;;;;;;15.50;8.60;;;2.80;99.90;;;;;;5075552;28;20404;-71
2023/12/08 02:47:52;;;;;;;14.80;8.90;;;2.80;99.90;;;;;;5074956;28;20606;-71
2023/12/08 02:50:18;;;;;;;15.97;8.93;;;2.80;99.90;;;;;;5076501;28;20201;-71
2023/12/08 02:52:43;;;;;;;15.40;10.33;;;2.90;99.90;;;;;;5078462;28;20173;-71
2023/12/08 02:55:09;;;;;;;16.07;9.40;;;2.90;99.90;;;;;;5077779;28;20189;-70
2023/12/08 02:57:34;;;;;;;15.00;9.10;;;3.00;99.90;;;;;;5078760;28;20174;-71
2023/12/08 03:00:00;;;;;;;14.50;8.97;;;3.00;99.90;;;;;;5079650;28;20536;-71
2023/12/08 03:02:25;;;;;;;12.33;7.87;;;3.00;99.90;;;;;;5077697;28;20209;-71
2023/12/08 03:04:51;;;;;;;13.57;8.00;;;3.10;99.90;;;;;;5077695;28;20196;-71
2023/12/08 03:07:16;;;;;;;13.00;8.60;;;3.00;99.90;;;;;;5078133;28;20224;-71
2023/12/08 03:09:42;;;;;;;12.80;8.50;;;3.10;99.90;;;;;;5078051;28;20166;-71
2023/12/08 03:12:07;;;;;;;11.87;7.30;;;3.10;99.90;;;;;;5078828;28;20213;-71
2023/12/08 03:14:33;;;;;;;12.63;7.70;;;3.20;99.90;;;;;;5075200;28;20174;-70
2023/12/08 03:16:58;;;;;;;12.77;7.87;;;3.10;99.90;;;;;;5076484;28;20189;-71
2023/12/08 03:19:24;;;;;;;15.67;8.13;;;3.10;99.90;;;;;;5073911;28;20181;-71
2023/12/08 03:21:50;;;;;;;14.63;9.63;;;3.00;99.90;;;;;;5073298;28;20560;-71
2023/12/08 03:24:16;;;;;;;13.17;8.13;;;3.00;99.90;;;;;;5072777;28;20174;-71
2023/12/08 03:26:42;;;;;;;12.27;8.70;;;2.90;99.90;;;;;;5073033;28;20405;-70
2023/12/08 03:29:08;;;;;;;11.50;8.97;;;2.80;99.90;;;;;;5071990;28;20257;-71
2023/12/08 03:31:33;;;;;;;14.73;9.90;;;2.80;99.90;;;;;;5071382;28;20864;-70
2023/12/08 03:33:59;;;;;;;16.23;9.30;;;2.70;99.90;;;;;;5081277;28;20194;-70
2023/12/08 03:36:24;;;;;;;15.13;8.10;;;2.60;99.90;;;;;;5085355;28;20177;-71
2023/12/08 03:38:50;;;;;;;14.17;9.47;;;2.60;99.90;;;;;;5083194;28;20180;-71
2023/12/08 03:41:15;;;;;;;20.53;9.67;;;2.50;99.90;;;;;;5080801;28;20292;-70
2023/12/08 03:43:41;;;;;;;16.57;8.63;;;2.50;99.90;;;;;;5081524;28;20185;-71
2023/12/08 03:46:08;;;;;;;15.40;8.00;;;2.40;99.90;;;;;;5079832;28;20158;-72
2023/12/08 03:48:36;;;;;;;13.47;8.30;;;2.40;99.90;;;;;;5080479;28;20174;-72
2023/12/08 03:51:03;;;;;;;19.00;9.13;;;2.40;99.90;;;;;;5080240;28;20455;-71
2023/12/08 03:53:28;;;;;;;15.57;9.70;;;2.40;99.90;;;;;;5080983;28;20428;-72
2023/12/08 03:55:54;;;;;;;15.40;9.70;;;2.40;99.90;;;;;;5079103;28;20435;-72
2023/12/08 03:58:19;;;;;;;18.83;9.20;;;2.40;99.90;;;;;;5079758;28;20585;-72
2023/12/08 04:00:45;;;;;;;18.93;9.40;;;2.40;99.90;;;;;;5079278;28;20187;-72
2023/12/08 04:03:10;;;;;;;18.13;10.20;;;2.40;99.90;;;;;;5080877;28;20208;-71
2023/12/08 04:05:36;;;;;;;15.87;8.80;;;2.40;99.90;;;;;;5081395;28;20177;-70
2023/12/08 04:08:04;;;;;;;15.63;8.70;;;2.40;99.90;;;;;;5081149;28;20177;-72
2023/12/08 04:10:30;;;;;;;13.33;8.83;;;2.40;99.90;;;;;;5082457;28;20182;-70
2023/12/08 04:12:56;;;;;;;14.90;9.23;;;2.40;99.90;;;;;;5081701;28;20404;-71
2023/12/08 04:15:22;;;;;;;19.57;10.20;;;2.40;99.90;;;;;;5070649;28;20512;-70
2023/12/08 04:17:47;;;;;;;17.63;9.90;;;2.40;99.90;;;;;;5081257;28;20178;-71
2023/12/08 04:20:13;;;;;;;18.77;8.90;;;2.40;99.90;;;;;;5082199;28;20221;-71
2023/12/08 04:22:39;;;;;;;18.67;11.07;;;2.40;99.90;;;;;;5081792;28;20220;-71
2023/12/08 04:25:05;;;;;;;13.97;9.43;;;2.40;99.90;;;;;;5082735;28;20178;-70
2023/12/08 04:27:30;;;;;;;14.57;10.03;;;2.40;99.90;;;;;;5084709;28;20163;-70
2023/12/08 04:29:56;;;;;;;17.90;10.70;;;2.40;99.90;;;;;;5082704;28;20435;-71
2023/12/08 04:32:21;;;;;;;20.13;11.23;;;2.40;99.90;;;;;;5081389;28;20179;-71
2023/12/08 04:34:47;;;;;;;16.37;10.90;;;2.40;99.90;;;;;;5080918;28;20260;-70
2023/12/08 04:37:13;;;;;;;22.77;11.87;;;2.30;99.90;;;;;;5081537;28;20190;-71
2023/12/08 04:39:38;;;;;;;19.30;11.37;;;2.50;99.90;;;;;;5082984;28;20257;-71
2023/12/08 04:42:04;;;;;;;19.00;11.30;;;2.40;99.90;;;;;;5080702;28;20208;-71
2023/12/08 04:44:30;;;;;;;20.20;11.43;;;2.40;99.90;;;;;;5081761;28;20169;-71
2023/12/08 04:46:55;;;;;;;26.83;11.03;;;2.50;99.90;;;;;;5084226;28;20416;-70
2023/12/08 04:49:21;;;;;;;18.27;11.87;;;2.50;99.90;;;;;;5082166;28;20265;-70
2023/12/08 04:51:46;;;;;;;17.60;12.33;;;2.50;99.90;;;;;;5083125;28;20197;-71
2023/12/08 04:54:12;;;;;;;17.23;10.10;;;2.50;99.90;;;;;;5083171;28;20802;-71
2023/12/08 04:56:37;;;;;;;22.63;12.17;;;2.50;99.90;;;;;;5082343;28;20202;-72
2023/12/08 04:59:03;;;;;;;19.83;11.53;;;2.60;99.90;;;;;;5081110;28;20179;-71
2023/12/08 05:01:29;;;;;;;16.37;10.50;;;2.60;99.90;;;;;;5081501;28;20201;-70
2023/12/08 05:03:54;;;;;;;16.43;10.93;;;2.50;99.90;;;;;;5079114;28;20427;-71
2023/12/08 05:06:22;;;;;;;19.30;10.80;;;2.50;99.90;;;;;;5078320;28;20166;-71
2023/12/08 05:08:47;;;;;;;18.03;10.40;;;2.50;99.90;;;;;;5078002;28;20162;-71
2023/12/08 05:11:13;;;;;;;17.53;11.47;;;2.60;99.90;;;;;;5076569;28;20523;-70
2023/12/08 05:13:38;;;;;;;24.17;12.40;;;2.60;99.90;;;;;;5072817;28;20182;-71
2023/12/08 05:16:04;;;;;;;24.03;12.90;;;2.50;99.90;;;;;;5074390;28;20648;-71
2023/12/08 05:18:30;;;;;;;20.83;11.60;;;2.50;99.90;;;;;;5075564;28;20177;-71
2023/12/08 05:20:55;;;;;;;26.27;12.07;;;2.50;99.90;;;;;;5073241;28;20444;-71
2023/12/08 05:23:21;;;;;;;21.80;12.07;;;2.40;99.90;;;;;;5073616;28;20174;-72
2023/12/08 05:25:46;;;;;;;21.10;11.87;;;2.50;99.90;;;;;;5075161;28;20162;-72
2023/12/08 05:28:12;;;;;;;18.10;10.60;;;2.50;99.90;;;;;;5074812;28;20174;-71
2023/12/08 05:30:37;;;;;;;19.60;12.23;;;2.40;99.90;;;;;;5074947;28;20269;-70
2023/12/08 05:33:03;;;;;;;24.03;11.53;;;2.40;99.90;;;;;;5074499;28;20247;-72
2023/12/08 05:35:28;;;;;;;23.20;12.47;;;2.40;99.90;;;;;;5074844;28;20185;-72
2023/12/08 05:37:54;;;;;;;20.23;12.87;;;2.40;99.90;;;;;;5073176;28;20174;-72
2023/12/08 05:40:19;;;;;;;24.70;13.50;;;2.40;99.90;;;;;;5072605;28;20194;-71
2023/12/08 05:42:45;;;;;;;29.60;13.73;;;2.40;99.90;;;;;;5074055;28;20604;-72
2023/12/08 05:45:11;;;;;;;24.33;13.80;;;2.40;99.90;;;;;;5072749;28;20265;-73
2023/12/08 05:47:36;;;;;;;24.07;13.47;;;2.40;99.90;;;;;;5073811;28;20597;-72
2023/12/08 05:50:02;;;;;;;24.10;15.80;;;2.40;99.90;;;;;;5073765;28;20227;-72
2023/12/08 05:52:28;;;;;;;19.27;12.07;;;2.40;99.90;;;;;;5073754;28;20225;-72
2023/12/08 05:54:54;;;;;;;25.83;13.20;;;2.50;99.90;;;;;;5073542;28;20436;-71
2023/12/08 05:57:19;;;;;;;26.67;13.07;;;2.60;99.90;;;;;;5072268;28;20268;-72
2023/12/08 05:59:45;;;;;;;25.50;13.47;;;2.50;99.90;;;;;;5072585;28;20184;-72
2023/12/08 06:02:10;;;;;;;24.80;14.10;;;2.50;99.90;;;;;;5066752;28;20300;-72
2023/12/08 06:04:36;;;;;;;24.30;12.40;;;2.60;99.90;;;;;;5073152;28;20705;-71
2023/12/08 06:07:01;;;;;;;27.67;12.93;;;2.50;99.90;;;;;;5073319;28;20166;-74
2023/12/08 06:09:27;;;;;;;21.00;11.93;;;2.60;99.90;;;;;;5073187;28;20167;-71
2023/12/08 06:11:52;;;;;;;18.80;13.27;;;2.60;99.90;;;;;;5072837;28;20202;-72
2023/12/08 06:14:18;;;;;;;18.87;12.97;;;2.60;99.90;;;;;;5057896;28;20178;-71
2023/12/08 06:16:44;;;;;;;22.57;14.40;;;2.70;99.90;;;;;;5071739;28;20265;-72
2023/12/08 06:19:10;;;;;;;28.03;13.80;;;2.60;99.90;;;;;;5071359;28;20496;-71
2023/12/08 06:21:35;;;;;;;22.53;14.30;;;2.70;99.90;;;;;;5072535;28;20210;-72
2023/12/08 06:24:01;;;;;;;26.20;14.57;;;2.80;99.90;;;;;;5071423;28;20178;-72
2023/12/08 06:26:26;;;;;;;31.53;15.33;;;2.80;99.90;;;;;;5072728;28;20185;-70
2023/12/08 06:28:53;;;;;;;25.77;13.50;;;2.80;99.90;;;;;;5071575;28;20189;-72
2023/12/08 06:31:18;;;;;;;27.00;12.90;;;2.80;99.90;;;;;;5071339;28;20228;-71
2023/12/08 06:33:44;;;;;;;25.17;15.07;;;2.80;99.90;;;;;;5071373;28;20924;-72
2023/12/08 06:36:10;;;;;;;25.37;14.43;;;2.80;99.90;;;;;;5072963;28;20178;-72
2023/12/08 06:38:39;;;;;;;18.40;11.00;;;2.80;99.90;;;;;;5072536;28;20170;-72
2023/12/08 06:41:05;;;;;;;22.83;13.00;;;2.80;99.90;;;;;;5072429;28;20428;-71
2023/12/08 06:43:32;;;;;;;24.67;12.80;;;2.90;99.90;;;;;;5071013;28;20427;-71
2023/12/08 06:45:57;;;;;;;27.33;15.10;;;2.90;99.90;;;;;;5072463;28;20164;-71
2023/12/08 06:48:23;;;;;;;23.77;13.67;;;3.00;99.90;;;;;;5072265;28;20412;-71
2023/12/08 06:50:50;;;;;;;23.90;12.70;;;3.00;99.90;;;;;;5071035;28;20210;-71
2023/12/08 06:53:16;;;;;;;26.83;14.43;;;3.00;99.90;;;;;;5072674;28;20400;-71
2023/12/08 06:55:42;;;;;;;25.60;14.73;;;3.00;99.90;;;;;;5071052;28;20530;-72
2023/12/08 06:58:08;;;;;;;22.20;13.03;;;3.00;99.90;;;;;;5072334;28;20181;-71
2023/12/08 07:00:33;;;;;;;21.97;13.27;;;2.90;99.90;;;;;;5072040;28;20421;-71
2023/12/08 07:02:59;;;;;;;19.10;12.93;;;3.00;99.90;;;;;;5070754;28;20213;-71
2023/12/08 07:05:24;;;;;;;28.00;13.67;;;3.00;99.90;;;;;;5072068;28;20653;-72
2023/12/08 07:07:50;;;;;;;26.53;13.37;;;3.00;99.90;;;;;;5070271;28;20178;-71
2023/12/08 07:10:16;;;;;;;23.57;12.87;;;3.00;99.90;;;;;;5070594;28;20221;-71
2023/12/08 07:12:42;;;;;;;20.57;11.70;;;3.00;99.90;;;;;;5070735;28;20961;-71
2023/12/08 07:15:08;;;;;;;24.77;13.07;;;3.00;99.90;;;;;;5068817;28;20185;-70
2023/12/08 07:17:34;;;;;;;20.23;12.13;;;3.00;99.90;;;;;;5071753;28;20424;-69
2023/12/08 07:19:59;;;;;;;20.30;13.27;;;3.00;99.90;;;;;;5071647;28;20413;-71
2023/12/08 07:22:25;;;;;;;30.30;14.30;;;3.10;99.90;;;;;;5071783;28;20593;-71
2023/12/08 07:24:50;;;;;;;24.27;14.83;;;3.10;99.90;;;;;;5063149;28;20174;-71
2023/12/08 07:27:16;;;;;;;24.60;13.87;;;3.00;99.90;;;;;;5071946;28;20177;-71
2023/12/08 07:29:42;;;;;;;28.27;14.20;;;3.10;99.90;;;;;;5070313;28;20163;-70
2023/12/08 07:32:07;;;;;;;26.47;13.97;;;3.10;99.90;;;;;;5068374;28;20638;-70
2023/12/08 07:34:33;;;;;;;24.63;14.97;;;3.10;99.90;;;;;;5071775;28;20412;-71
2023/12/08 07:36:58;;;;;;;20.93;13.43;;;3.10;99.90;;;;;;5071719;28;20186;-71
2023/12/08 07:39:24;;;;;;;27.40;14.00;;;3.10;99.90;;;;;;5071782;28;20189;-71
2023/12/08 07:41:49;;;;;;;23.57;14.20;;;3.10;99.90;;;;;;5070390;28;20197;-71
2023/12/08 07:44:15;;;;;;;27.17;14.43;;;3.10;99.90;;;;;;5070464;28;20166;-71
2023/12/08 07:46:41;;;;;;;23.80;12.43;;;3.10;99.90;;;;;;5071814;28;20158;-71
2023/12/08 07:49:06;;;;;;;26.53;15.63;;;3.20;99.90;;;;;;5071615;28;20171;-71
2023/12/08 07:51:32;;;;;;;30.03;14.60;;;3.20;99.90;;;;;;5071600;28;20193;-70
2023/12/08 07:54:00;;;;;;;23.33;14.40;;;3.20;99.90;;;;;;5071561;28;20187;-71
2023/12/08 07:56:25;;;;;;;27.43;15.13;;;3.30;99.90;;;;;;5070476;28;20412;-71
2023/12/08 07:58:51;;;;;;;21.10;13.70;;;3.30;99.90;;;;;;5071713;28;20428;-71
2023/12/08 08:01:17;;;;;;;21.97;14.10;;;3.30;99.90;;;;;;5070103;28;20194;-70
2023/12/08 08:03:42;;;;;;;30.40;14.40;;;3.30;99.90;;;;;;5071659;28;20162;-71
2023/12/08 08:06:08;;;;;;;29.83;14.07;;;3.40;99.90;;;;;;5069398;28;20232;-71
2023/12/08 08:08:35;;;;;;;27.30;14.37;;;3.30;99.90;;;;;;5062284;28;20178;-72
2023/12/08 08:11:01;;;;;;;24.73;13.43;;;3.40;99.90;;;;;;5070139;28;20214;-71
2023/12/08 08:13:26;;;;;;;25.80;13.87;;;3.50;99.90;;;;;;5069305;28;20752;-71
2023/12/08 08:15:52;;;;;;;26.13;15.10;;;3.50;99.90;;;;;;5067028;28;20174;-71
2023/12/08 08:18:17;;;;;;;23.40;14.00;;;3.60;99.90;;;;;;5072745;28;20183;-71
2023/12/08 08:20:43;;;;;;;23.33;14.97;;;3.70;99.90;;;;;;5075143;28;20669;-71
2023/12/08 08:23:08;;;;;;;25.53;13.43;;;3.70;99.90;;;;;;5073703;28;20198;-71
2023/12/08 08:25:34;;;;;;;21.10;11.50;;;3.80;99.90;;;;;;5073233;28;20228;-71
2023/12/08 08:28:00;;;;;;;28.43;14.70;;;3.70;99.90;;;;;;5069465;28;20179;-72
2023/12/08 08:30:26;;;;;;;23.73;13.30;;;3.80;99.90;;;;;;5064301;28;20202;-72
2023/12/08 08:32:52;;;;;;;24.37;13.80;;;3.80;99.90;;;;;;5060024;28;20508;-72
2023/12/08 08:35:17;;;;;;;23.63;12.87;;;3.80;99.90;;;;;;5072529;28;20542;-71
2023/12/08 08:37:43;;;;;;;26.00;14.30;;;3.90;99.90;;;;;;5066065;28;20182;-72
2023/12/08 08:40:09;;;;;;;25.20;15.27;;;3.90;99.90;;;;;;5069127;28;20607;-72
2023/12/08 08:42:36;;;;;;;28.57;13.80;;;3.90;99.90;;;;;;5075423;28;20198;-71
2023/12/08 08:45:03;;;;;;;21.90;13.10;;;4.00;99.90;;;;;;5075402;28;20416;-72
2023/12/08 08:47:28;;;;;;;26.10;14.27;;;4.00;99.90;;;;;;5074448;28;20405;-71
2023/12/08 08:49:54;;;;;;;23.73;13.07;;;3.90;99.90;;;;;;5075523;28;20462;-72
2023/12/08 08:52:20;;;;;;;22.37;12.27;;;4.00;99.90;;;;;;5075814;28;20224;-72
2023/12/08 08:54:46;;;;;;;23.03;13.73;;;4.00;99.90;;;;;;5076315;28;20193;-72
2023/12/08 08:57:12;;;;;;;25.60;14.83;;;4.00;99.90;;;;;;5067258;28;20238;-72
2023/12/08 08:59:37;;;;;;;21.93;13.43;;;4.10;99.90;;;;;;5069810;28;20513;-72
2023/12/08 09:02:03;;;;;;;23.30;12.67;;;4.10;99.90;;;;;;5072805;28;20225;-71
2023/12/08 09:04:28;;;;;;;25.10;13.13;;;4.00;99.90;;;;;;5077868;28;20174;-72
2023/12/08 09:06:56;;;;;;;24.73;13.00;;;4.10;99.90;;;;;;5075918;28;20162;-72
2023/12/08 09:09:21;;;;;;;31.20;14.30;;;4.10;99.90;;;;;;5076387;28;20209;-71
2023/12/08 09:11:47;;;;;;;24.13;13.87;;;4.10;99.90;;;;;;5075660;28;20926;-71
2023/12/08 09:14:12;;;;;;;26.37;13.33;;;4.20;99.90;;;;;;5070734;28;20167;-72
2023/12/08 09:16:39;;;;;;;25.03;15.80;;;4.20;99.90;;;;;;5074358;28;20196;-72
2023/12/08 09:19:05;;;;;;;25.03;13.43;;;4.20;99.90;;;;;;5075282;28;20166;-72
2023/12/08 09:21:31;;;;;;;26.50;13.77;;;4.30;99.90;;;;;;5074892;28;20456;-72
2023/12/08 09:23:56;;;;;;;20.70;13.53;;;4.30;99.90;;;;;;5075951;28;20415;-72
2023/12/08 09:26:22;;;;;;;33.23;16.57;;;4.30;99.90;;;;;;5075348;28;20229;-72
2023/12/08 09:28:47;;;;;;;21.70;12.57;;;4.40;99.90;;;;;;5073419;28;20163;-71
2023/12/08 09:31:13;;;;;;;25.00;14.87;;;4.50;99.90;;;;;;5074047;28;20195;-72
2023/12/08 09:33:41;;;;;;;22.67;13.73;;;4.50;99.90;;;;;;5074166;28;20162;-72
2023/12/08 09:36:10;;;;;;;26.83;14.97;;;4.40;99.90;;;;;;5075441;28;20158;-72
2023/12/08 09:38:35;;;;;;;27.77;14.83;;;4.50;99.90;;;;;;5074319;28;20957;-70
2023/12/08 09:41:04;;;;;;;20.47;14.13;;;4.50;99.90;;;;;;5073782;28;20503;-72
2023/12/08 09:43:49;;;;;;;22.53;12.13;;;4.60;99.90;;;;;;5053941;28;20598;-74
2023/12/08 09:46:15;;;;;;;21.97;15.20;;;4.70;99.90;;;;;;5054134;28;20897;-72
2023/12/08 09:48:43;;;;;;;28.07;14.57;;;4.60;99.90;;;;;;5053793;28;20404;-70
2023/12/08 09:51:09;;;;;;;31.10;14.90;;;4.60;99.90;;;;;;5054062;28;20534;-71
2023/12/08 09:53:36;;;;;;;22.40;13.37;;;4.70;99.90;;;;;;5053791;28;20420;-71
2023/12/08 09:56:02;;;;;;;20.40;13.40;;;4.80;99.90;;;;;;5053600;28;20185;-72
2023/12/08 09:58:28;;;;;;;32.20;15.37;;;4.90;99.90;;;;;;5053635;28;20896;-72
2023/12/08 10:00:56;;;;;;;19.13;12.50;;;4.80;99.90;;;;;;5062827;28;20797;-72
2023/12/08 10:03:22;;;;;;;24.40;13.33;;;5.00;99.90;;;;;;5070547;28;20448;-71
2023/12/08 10:05:50;;;;;;;27.47;12.33;;;5.00;99.90;;;;;;5067710;28;20783;-71
2023/12/08 10:08:15;;;;;;;25.40;13.33;;;5.00;99.90;;;;;;5073261;28;20253;-72
2023/12/08 10:10:41;;;;;;;26.10;14.70;;;5.10;99.90;;;;;;5073128;28;20456;-71
2023/12/08 10:13:06;;;;;;;23.63;15.20;;;5.10;99.90;;;;;;5073860;28;20158;-72
2023/12/08 10:15:32;;;;;;;31.73;15.00;;;5.10;99.90;;;;;;5066195;28;20260;-72
2023/12/08 10:17:58;;;;;;;27.63;14.00;;;5.20;99.90;;;;;;5073102;28;20687;-75
2023/12/08 10:20:23;;;;;;;23.33;13.80;;;5.30;99.90;;;;;;5064229;28;20266;-72
2023/12/08 10:22:53;;;;;;;22.50;14.43;;;5.30;99.90;;;;;;5068672;28;20229;-72
2023/12/08 10:25:24;;;;;;;30.90;13.80;;;5.40;99.90;;;;;;5073778;28;20650;-72
2023/12/08 10:27:52;;;;;;;21.07;13.07;;;5.50;99.90;;;;;;5073558;28;20399;-72
2023/12/08 10:30:23;;;;;;;20.60;13.10;;;5.50;99.90;;;;;;5073570;28;20429;-72
2023/12/08 10:32:49;;;;;;;24.37;13.90;;;5.50;99.90;;;;;;5073598;28;20440;-72
2023/12/08 10:35:15;;;;;;;27.17;14.80;;;5.50;99.90;;;;;;5072650;28;20408;-72
2023/12/08 10:37:41;;;;;;;22.40;14.17;;;5.60;99.90;;;;;;5073997;28;20166;-71
2023/12/08 10:40:15;;;;;;;18.20;13.20;;;5.70;99.90;;;;;;5074073;28;20432;-72
2023/12/08 10:42:43;;;;;;;27.37;14.67;;;5.80;99.90;;;;;;5073929;28;20478;-73
2023/12/08 10:45:13;;;;;;;25.13;13.63;;;5.80;99.90;;;;;;5073726;28;20400;-72
2023/12/08 10:47:40;;;;;;;18.83;12.57;;;5.80;99.90;;;;;;5073319;28;20400;-73
2023/12/08 10:50:09;;;;;;;25.47;13.57;;;5.80;99.90;;;;;;5073355;28;20419;-72
2023/12/08 10:52:39;;;;;;;31.40;16.57;;;5.80;99.90;;;;;;5073262;28;20405;-72
2023/12/08 10:55:09;;;;;;;27.20;13.50;;;5.90;99.90;;;;;;5073612;28;20432;-73
2023/12/08 10:57:38;;;;;;;21.57;14.00;;;6.00;99.90;;;;;;5073551;28;20412;-71
2023/12/08 11:00:16;;;;;;;20.43;11.97;;;5.90;99.90;;;;;;5073199;28;20401;-72
2023/12/08 11:02:45;;;;;;;22.50;13.33;;;5.90;99.90;;;;;;5074215;28;20478;-72
2023/12/08 11:05:16;;;;;;;23.60;12.03;;;5.90;99.90;;;;;;5073336;28;20402;-73
2023/12/08 11:07:44;;;;;;;23.77;13.10;;;5.90;99.90;;;;;;5073160;28;20400;-71
2023/12/08 11:10:12;;;;;;;19.67;12.40;;;6.00;99.90;;;;;;5073310;28;20470;-72
2023/12/08 11:12:46;;;;;;;26.40;13.20;;;6.10;99.90;;;;;;5073272;28;20454;-72
2023/12/08 11:15:18;;;;;;;22.17;14.57;;;6.00;99.90;;;;;;5073547;28;20396;-72
2023/12/08 11:17:52;;;;;;;19.43;12.57;;;6.00;99.90;;;;;;5072823;28;20397;-72
2023/12/08 11:20:18;;;;;;;21.67;12.77;;;5.90;99.90;;;;;;5073112;28;20426;-72
2023/12/08 11:22:47;;;;;;;23.40;13.10;;;5.90;99.90;;;;;;5070113;28;20459;-72
2023/12/08 11:25:21;;;;;;;20.37;11.37;;;6.00;99.90;;;;;;5065354;28;20205;-73
2023/12/08 11:28:05;;;;;;;23.17;11.90;;;6.00;99.90;;;;;;5073144;28;20399;-74
2023/12/08 11:30:55;;;;;;;20.57;12.53;;;6.10;99.90;;;;;;5073468;28;20432;-73
2023/12/08 11:33:39;;;;;;;18.83;12.60;;;6.00;99.90;;;;;;5071525;28;20420;-72
2023/12/08 11:36:08;;;;;;;16.80;11.43;;;6.00;99.90;;;;;;5074087;28;20749;-73
2023/12/08 11:38:34;;;;;;;16.93;12.20;;;6.20;99.90;;;;;;5073902;28;20439;-73
2023/12/08 11:40:59;;;;;;;19.40;13.80;;;6.20;99.90;;;;;;5073768;28;20428;-73
2023/12/08 11:43:29;;;;;;;18.87;11.83;;;6.20;99.90;;;;;;5074301;28;20744;-73
2023/12/08 11:45:54;;;;;;;17.67;11.97;;;6.30;99.90;;;;;;5073430;28;20173;-72
2023/12/08 11:48:20;;;;;;;19.03;11.87;;;6.40;99.90;;;;;;5072854;28;20786;-72
2023/12/08 11:50:46;;;;;;;17.90;11.97;;;6.40;99.90;;;;;;5073432;28;20677;-73
2023/12/08 11:53:12;;;;;;;18.60;11.70;;;6.40;99.90;;;;;;5075550;28;20166;-74
2023/12/08 11:55:38;;;;;;;22.83;11.80;;;6.50;99.90;;;;;;5075089;28;20474;-72
2023/12/08 11:58:11;;;;;;;15.57;11.27;;;6.50;99.90;;;;;;5072842;28;20404;-72
2023/12/08 12:00:41;;;;;;;21.83;11.73;;;6.50;99.90;;;;;;5069773;28;20438;-73
2023/12/08 12:03:07;;;;;;;25.47;11.27;;;6.60;99.90;;;;;;5076783;28;21026;-72
2023/12/08 12:05:35;;;;;;;22.07;11.73;;;6.60;99.90;;;;;;5076352;28;20914;-72
2023/12/08 12:08:01;;;;;;;19.77;12.20;;;6.60;99.90;;;;;;5077427;28;20484;-71
2023/12/08 12:10:34;;;;;;;21.37;11.60;;;6.50;99.90;;;;;;5077020;28;20456;-72
2023/12/08 12:13:04;;;;;;;19.37;10.87;;;6.50;99.90;;;;;;5076533;28;20427;-71
2023/12/08 12:15:33;;;;;;;19.67;13.10;;;6.50;99.90;;;;;;5070296;28;20553;-71
2023/12/08 12:18:00;;;;;;;22.30;11.40;;;6.60;99.90;;;;;;5074973;28;20469;-70
2023/12/08 12:20:29;;;;;;;18.70;11.70;;;6.60;99.90;;;;;;5073913;28;20432;-71
2023/12/08 12:22:55;;;;;;;28.27;11.80;;;6.60;99.90;;;;;;5075072;28;20454;-70
2023/12/08 12:25:21;;;;;;;18.63;13.07;;;6.60;99.90;;;;;;5075222;28;20408;-71
2023/12/08 12:27:47;;;;;;;21.70;11.40;;;6.60;99.90;;;;;;5075213;28;20396;-71
2023/12/08 12:30:13;;;;;;;18.60;10.43;;;6.60;99.90;;;;;;5075013;28;20225;-69
2023/12/08 12:32:39;;;;;;;16.80;12.97;;;6.60;99.90;;;;;;5073701;28;20174;-72
2023/12/08 12:35:06;;;;;;;17.47;12.03;;;6.70;99.90;;;;;;5074930;28;20408;-71
2023/12/08 12:37:32;;;;;;;16.57;11.10;;;6.70;99.90;;;;;;5074945;28;20166;-72